MXY340 KTPA-KHSV
Flight info
| Callsign | MXY340 |
|---|---|
| Flight time | 1h 20m |
| Altitude | FL320 |
| Route | ENDED2.LACEN PATOY Q116 VLKNN |
| Aircraft | E190/M-VGDW/C |
Departure
| Time | 2026-04-16 09:08 |
|---|---|
| Airport | Tampa International Airport (KTPA) |
Arrival
| Time | 2026-04-16 10:28 |
|---|---|
| Airport | Huntsville International Airport (KHSV) |
| Time | Latitude | Longitude | Altitude | Speed | Heading |
|---|---|---|---|---|---|
| 2026-04-16 08:39 | 27.98276 | -82.53311 | 36 ft | 0 kts | 97° |
| 2026-04-16 08:53 | 27.98276 | -82.53312 | 36 ft | 1 kts | 97° |
| 2026-04-16 08:53 | 27.98278 | -82.53327 | 36 ft | 3 kts | 97° |
| 2026-04-16 08:54 | 27.98280 | -82.53348 | 36 ft | 3 kts | 97° |
| 2026-04-16 08:54 | 27.98283 | -82.53369 | 36 ft | 3 kts | 97° |
| 2026-04-16 08:54 | 27.98283 | -82.53378 | 36 ft | 0 kts | 95° |
| 2026-04-16 08:57 | 27.98283 | -82.53376 | 36 ft | 1 kts | 94° |
| 2026-04-16 08:57 | 27.98288 | -82.53361 | 36 ft | 3 kts | 54° |
| 2026-04-16 08:57 | 27.98315 | -82.53352 | 36 ft | 6 kts | 1° |
| 2026-04-16 08:58 | 27.98364 | -82.53352 | 36 ft | 8 kts | 0° |
| 2026-04-16 08:58 | 27.98430 | -82.53346 | 36 ft | 11 kts | 21° |
| 2026-04-16 08:58 | 27.98461 | -82.53270 | 36 ft | 10 kts | 84° |
| 2026-04-16 08:58 | 27.98466 | -82.53208 | 36 ft | 5 kts | 85° |
| 2026-04-16 08:59 | 27.98479 | -82.53171 | 36 ft | 6 kts | 54° |
| 2026-04-16 08:59 | 27.98522 | -82.53165 | 36 ft | 8 kts | 314° |
| 2026-04-16 08:59 | 27.98534 | -82.53236 | 36 ft | 11 kts | 271° |
| 2026-04-16 08:59 | 27.98536 | -82.53341 | 36 ft | 16 kts | 272° |
| 2026-04-16 09:00 | 27.98540 | -82.53460 | 36 ft | 15 kts | 272° |
| 2026-04-16 09:00 | 27.98545 | -82.53577 | 36 ft | 15 kts | 272° |
| 2026-04-16 09:00 | 27.98548 | -82.53690 | 36 ft | 14 kts | 272° |
| 2026-04-16 09:00 | 27.98552 | -82.53799 | 36 ft | 14 kts | 272° |
| 2026-04-16 09:01 | 27.98560 | -82.53937 | 36 ft | 7 kts | 288° |
| 2026-04-16 09:01 | 27.98595 | -82.53968 | 36 ft | 7 kts | 344° |
| 2026-04-16 09:01 | 27.98640 | -82.53979 | 36 ft | 7 kts | 355° |
| 2026-04-16 09:02 | 27.98695 | -82.53979 | 36 ft | 9 kts | 2° |
| 2026-04-16 09:02 | 27.98761 | -82.53976 | 36 ft | 10 kts | 2° |
| 2026-04-16 09:02 | 27.98838 | -82.53973 | 36 ft | 12 kts | 2° |
| 2026-04-16 09:02 | 27.98925 | -82.53970 | 36 ft | 13 kts | 2° |
| 2026-04-16 09:03 | 27.99023 | -82.53966 | 36 ft | 15 kts | 2° |
| 2026-04-16 09:03 | 27.99131 | -82.53962 | 36 ft | 16 kts | 2° |
| 2026-04-16 09:03 | 27.99232 | -82.53958 | 36 ft | 11 kts | 2° |
| 2026-04-16 09:03 | 27.99303 | -82.53960 | 36 ft | 8 kts | 343° |
| 2026-04-16 09:04 | 27.99333 | -82.54007 | 36 ft | 5 kts | 277° |
| 2026-04-16 09:04 | 27.99333 | -82.54018 | 36 ft | 0 kts | 270° |
| 2026-04-16 09:05 | 27.99333 | -82.54019 | 36 ft | 0 kts | 270° |
| 2026-04-16 09:05 | 27.99333 | -82.54023 | 36 ft | 1 kts | 270° |
| 2026-04-16 09:06 | 27.99334 | -82.54047 | 36 ft | 5 kts | 270° |
| 2026-04-16 09:06 | 27.99334 | -82.54097 | 36 ft | 5 kts | 270° |
| 2026-04-16 09:06 | 27.99306 | -82.54135 | 36 ft | 9 kts | 192° |
| 2026-04-16 09:06 | 27.99224 | -82.54138 | 36 ft | 17 kts | 180° |
| 2026-04-16 09:07 | 27.98852 | -82.54152 | 36 ft | 92 kts | 182° |
| 2026-04-16 09:07 | 27.97982 | -82.54185 | 37 ft | 156 kts | 181° |
| 2026-04-16 09:07 | 27.96763 | -82.54227 | 213 ft | 193 kts | 182° |
| 2026-04-16 09:07 | 27.95432 | -82.54487 | 557 ft | 192 kts | 194° |
| 2026-04-16 09:08 | 27.94145 | -82.54945 | 946 ft | 198 kts | 197° |
| 2026-04-16 09:08 | 27.92824 | -82.55454 | 1364 ft | 203 kts | 198° |
| 2026-04-16 09:08 | 27.91596 | -82.56269 | 1759 ft | 212 kts | 218° |
| 2026-04-16 09:08 | 27.90796 | -82.57688 | 2199 ft | 223 kts | 245° |
| 2026-04-16 09:09 | 27.90601 | -82.59483 | 2564 ft | 240 kts | 272° |
| 2026-04-16 09:09 | 27.91103 | -82.61295 | 3008 ft | 247 kts | 297° |
| 2026-04-16 09:09 | 27.92226 | -82.62768 | 3441 ft | 252 kts | 321° |
| 2026-04-16 09:09 | 27.93773 | -82.63714 | 4003 ft | 256 kts | 338° |
| 2026-04-16 09:10 | 27.95466 | -82.64408 | 4602 ft | 261 kts | 343° |
| 2026-04-16 09:10 | 27.97205 | -82.65029 | 5230 ft | 265 kts | 344° |
| 2026-04-16 09:10 | 27.98974 | -82.65632 | 5857 ft | 268 kts | 345° |
| 2026-04-16 09:10 | 28.00770 | -82.66231 | 6484 ft | 271 kts | 345° |
| 2026-04-16 09:11 | 28.02589 | -82.66824 | 7110 ft | 274 kts | 345° |
| 2026-04-16 09:11 | 28.04429 | -82.67416 | 7735 ft | 277 kts | 345° |
| 2026-04-16 09:11 | 28.06289 | -82.68011 | 8361 ft | 280 kts | 345° |
| 2026-04-16 09:11 | 28.08175 | -82.68615 | 8969 ft | 285 kts | 345° |
| 2026-04-16 09:12 | 28.10102 | -82.69230 | 9411 ft | 293 kts | 345° |
| 2026-04-16 09:12 | 28.12071 | -82.69854 | 9749 ft | 295 kts | 345° |
| 2026-04-16 09:12 | 28.14047 | -82.70473 | 10073 ft | 296 kts | 345° |
| 2026-04-16 09:12 | 28.16028 | -82.71087 | 10399 ft | 295 kts | 345° |
| 2026-04-16 09:13 | 28.18003 | -82.71693 | 10723 ft | 296 kts | 345° |
| 2026-04-16 09:13 | 28.20020 | -82.72306 | 11061 ft | 307 kts | 345° |
| 2026-04-16 09:13 | 28.22142 | -82.72948 | 11400 ft | 325 kts | 345° |
| 2026-04-16 09:13 | 28.24351 | -82.73610 | 11766 ft | 332 kts | 345° |
| 2026-04-16 09:14 | 28.26598 | -82.74278 | 12190 ft | 335 kts | 345° |
| 2026-04-16 09:14 | 28.28851 | -82.74944 | 12697 ft | 337 kts | 345° |
| 2026-04-16 09:14 | 28.31128 | -82.75615 | 13294 ft | 340 kts | 345° |
| 2026-04-16 09:14 | 28.33421 | -82.76290 | 13895 ft | 344 kts | 345° |
| 2026-04-16 09:15 | 28.35754 | -82.76973 | 14497 ft | 348 kts | 345° |
| 2026-04-16 09:15 | 28.38108 | -82.77631 | 15098 ft | 351 kts | 346° |
| 2026-04-16 09:15 | 28.40505 | -82.78205 | 15701 ft | 355 kts | 348° |
| 2026-04-16 09:15 | 28.42936 | -82.78713 | 16302 ft | 358 kts | 349° |
| 2026-04-16 09:16 | 28.45396 | -82.79175 | 16902 ft | 361 kts | 350° |
| 2026-04-16 09:16 | 28.47887 | -82.79607 | 17502 ft | 365 kts | 351° |
| 2026-04-16 09:16 | 28.50404 | -82.80022 | 18103 ft | 368 kts | 351° |
| 2026-04-16 09:16 | 28.51772 | -82.80241 | 18427 ft | 370 kts | 351° |
| 2026-04-16 09:17 | 28.54321 | -82.80631 | 19026 ft | 373 kts | 352° |
| 2026-04-16 09:17 | 28.56903 | -82.81039 | 19627 ft | 376 kts | 351° |
| 2026-04-16 09:17 | 28.59496 | -82.81481 | 20226 ft | 380 kts | 350° |
| 2026-04-16 09:17 | 28.62133 | -82.81944 | 20734 ft | 386 kts | 350° |
| 2026-04-16 09:18 | 28.64795 | -82.82415 | 21171 ft | 390 kts | 350° |
| 2026-04-16 09:18 | 28.67478 | -82.82890 | 21597 ft | 393 kts | 350° |
| 2026-04-16 09:18 | 28.70185 | -82.83366 | 22022 ft | 395 kts | 350° |
| 2026-04-16 09:18 | 28.72911 | -82.83842 | 22448 ft | 398 kts | 350° |
| 2026-04-16 09:19 | 28.75655 | -82.84320 | 22874 ft | 401 kts | 350° |
| 2026-04-16 09:19 | 28.78413 | -82.84798 | 23298 ft | 404 kts | 350° |
| 2026-04-16 09:19 | 28.81203 | -82.85279 | 23724 ft | 407 kts | 349° |
| 2026-04-16 09:19 | 28.84004 | -82.85757 | 24149 ft | 410 kts | 350° |
| 2026-04-16 09:20 | 28.86830 | -82.86235 | 24575 ft | 413 kts | 350° |
| 2026-04-16 09:20 | 28.89683 | -82.86714 | 25002 ft | 416 kts | 349° |
| 2026-04-16 09:20 | 28.92547 | -82.87188 | 25427 ft | 418 kts | 350° |
| 2026-04-16 09:20 | 28.95424 | -82.87661 | 25853 ft | 420 kts | 350° |
| 2026-04-16 09:21 | 28.98316 | -82.88131 | 26270 ft | 422 kts | 349° |
| 2026-04-16 09:21 | 29.01232 | -82.88600 | 26657 ft | 425 kts | 349° |
| 2026-04-16 09:21 | 29.04138 | -82.89155 | 27030 ft | 424 kts | 344° |
| 2026-04-16 09:21 | 29.06905 | -82.90264 | 27408 ft | 423 kts | 334° |
| 2026-04-16 09:22 | 29.09512 | -82.91814 | 27791 ft | 423 kts | 327° |
| 2026-04-16 09:22 | 29.11978 | -82.93625 | 28172 ft | 423 kts | 323° |
| 2026-04-16 09:22 | 29.14356 | -82.95592 | 28547 ft | 424 kts | 321° |
| 2026-04-16 09:22 | 29.16693 | -82.97655 | 28906 ft | 425 kts | 320° |
| 2026-04-16 09:23 | 29.19007 | -82.99756 | 29258 ft | 426 kts | 319° |
| 2026-04-16 09:23 | 29.21320 | -83.01868 | 29608 ft | 427 kts | 319° |
| 2026-04-16 09:23 | 29.23664 | -83.03970 | 29952 ft | 429 kts | 320° |
| 2026-04-16 09:23 | 29.26048 | -83.06025 | 30229 ft | 431 kts | 321° |
| 2026-04-16 09:24 | 29.28461 | -83.08053 | 30484 ft | 432 kts | 321° |
| 2026-04-16 09:24 | 29.30884 | -83.10056 | 30733 ft | 428 kts | 322° |
| 2026-04-16 09:24 | 29.33288 | -83.12026 | 30980 ft | 425 kts | 322° |
| 2026-04-16 09:24 | 29.35693 | -83.13988 | 31219 ft | 424 kts | 322° |
| 2026-04-16 09:25 | 29.38099 | -83.15948 | 31427 ft | 424 kts | 322° |
| 2026-04-16 09:25 | 29.40497 | -83.17904 | 31627 ft | 424 kts | 322° |
| 2026-04-16 09:25 | 29.42898 | -83.19864 | 31811 ft | 424 kts | 322° |
| 2026-04-16 09:25 | 29.45294 | -83.21823 | 31972 ft | 425 kts | 322° |
| 2026-04-16 09:26 | 29.47700 | -83.23794 | 32101 ft | 426 kts | 322° |
| 2026-04-16 09:26 | 29.52535 | -83.27763 | 32185 ft | 432 kts | 322° |
| 2026-04-16 09:27 | 29.57447 | -83.31810 | 32183 ft | 439 kts | 322° |
| 2026-04-16 09:27 | 29.62412 | -83.35907 | 32181 ft | 442 kts | 322° |
| 2026-04-16 09:28 | 29.67400 | -83.40029 | 32182 ft | 443 kts | 321° |
| 2026-04-16 09:28 | 29.72402 | -83.44169 | 32182 ft | 444 kts | 321° |
| 2026-04-16 09:29 | 29.77397 | -83.48310 | 32182 ft | 444 kts | 321° |
| 2026-04-16 09:29 | 29.82400 | -83.52466 | 32182 ft | 444 kts | 321° |
| 2026-04-16 09:30 | 29.87403 | -83.56622 | 32181 ft | 444 kts | 321° |
| 2026-04-16 09:30 | 29.92407 | -83.60781 | 32182 ft | 444 kts | 321° |
| 2026-04-16 09:31 | 29.97407 | -83.64941 | 32182 ft | 444 kts | 321° |
| 2026-04-16 09:31 | 30.02398 | -83.69100 | 32182 ft | 444 kts | 321° |
| 2026-04-16 09:32 | 30.07398 | -83.73274 | 32182 ft | 444 kts | 321° |
| 2026-04-16 09:32 | 30.12386 | -83.77446 | 32182 ft | 444 kts | 321° |
| 2026-04-16 09:33 | 30.17380 | -83.81629 | 32186 ft | 444 kts | 321° |
| 2026-04-16 09:33 | 30.22374 | -83.85813 | 32187 ft | 444 kts | 321° |
| 2026-04-16 09:34 | 30.27370 | -83.90003 | 32189 ft | 444 kts | 321° |
| 2026-04-16 09:34 | 30.32354 | -83.94190 | 32191 ft | 444 kts | 321° |
| 2026-04-16 09:35 | 30.37342 | -83.98386 | 32191 ft | 444 kts | 321° |
| 2026-04-16 09:35 | 30.42332 | -84.02590 | 32192 ft | 444 kts | 320° |
| 2026-04-16 09:36 | 30.47309 | -84.06789 | 32194 ft | 444 kts | 320° |
| 2026-04-16 09:36 | 30.52298 | -84.11005 | 32194 ft | 445 kts | 320° |
| 2026-04-16 09:37 | 30.57282 | -84.15224 | 32194 ft | 445 kts | 320° |
| 2026-04-16 09:37 | 30.62275 | -84.19454 | 32193 ft | 445 kts | 320° |
| 2026-04-16 09:38 | 30.67268 | -84.23691 | 32193 ft | 445 kts | 320° |
| 2026-04-16 09:38 | 30.72259 | -84.27930 | 32196 ft | 446 kts | 320° |
| 2026-04-16 09:39 | 30.77258 | -84.32184 | 32197 ft | 446 kts | 320° |
| 2026-04-16 09:39 | 30.82252 | -84.36438 | 32193 ft | 446 kts | 320° |
| 2026-04-16 09:40 | 30.87255 | -84.40706 | 32191 ft | 447 kts | 320° |
| 2026-04-16 09:40 | 30.92255 | -84.44976 | 32191 ft | 447 kts | 320° |
| 2026-04-16 09:41 | 30.97261 | -84.49257 | 32190 ft | 447 kts | 319° |
| 2026-04-16 09:41 | 31.02263 | -84.53542 | 32189 ft | 447 kts | 319° |
| 2026-04-16 09:42 | 31.07273 | -84.57838 | 32189 ft | 447 kts | 319° |
| 2026-04-16 09:42 | 31.12276 | -84.62134 | 32189 ft | 448 kts | 319° |
| 2026-04-16 09:43 | 31.17278 | -84.66437 | 32186 ft | 448 kts | 319° |
| 2026-04-16 09:43 | 31.22284 | -84.70747 | 32184 ft | 448 kts | 319° |
| 2026-04-16 09:44 | 31.27286 | -84.75060 | 32183 ft | 448 kts | 319° |
| 2026-04-16 09:44 | 31.32296 | -84.79386 | 32181 ft | 448 kts | 319° |
| 2026-04-16 09:45 | 31.37293 | -84.83708 | 32181 ft | 448 kts | 319° |
| 2026-04-16 09:45 | 31.42296 | -84.88041 | 32180 ft | 449 kts | 319° |
| 2026-04-16 09:46 | 31.47309 | -84.92390 | 32181 ft | 449 kts | 319° |
| 2026-04-16 09:46 | 31.52311 | -84.96736 | 32182 ft | 449 kts | 319° |
| 2026-04-16 09:47 | 31.57316 | -85.01094 | 32184 ft | 449 kts | 319° |
| 2026-04-16 09:47 | 31.62311 | -85.05454 | 32184 ft | 449 kts | 319° |
| 2026-04-16 09:48 | 31.67306 | -85.09822 | 32186 ft | 449 kts | 318° |
| 2026-04-16 09:48 | 31.72306 | -85.14204 | 32187 ft | 449 kts | 318° |
| 2026-04-16 09:49 | 31.77297 | -85.18585 | 32190 ft | 449 kts | 318° |
| 2026-04-16 09:49 | 31.82296 | -85.22980 | 32190 ft | 449 kts | 318° |
| 2026-04-16 09:50 | 31.87289 | -85.27377 | 32190 ft | 450 kts | 318° |
| 2026-04-16 09:50 | 31.92283 | -85.31781 | 32191 ft | 450 kts | 318° |
| 2026-04-16 09:51 | 31.97286 | -85.36199 | 32188 ft | 450 kts | 318° |
| 2026-04-16 09:51 | 32.02284 | -85.40618 | 32182 ft | 450 kts | 317° |
| 2026-04-16 09:52 | 32.07288 | -85.45050 | 32176 ft | 451 kts | 317° |
| 2026-04-16 09:52 | 32.12289 | -85.49487 | 32179 ft | 451 kts | 317° |
| 2026-04-16 09:53 | 32.17289 | -85.53928 | 32182 ft | 451 kts | 317° |
| 2026-04-16 09:53 | 32.22292 | -85.58378 | 32183 ft | 451 kts | 317° |
| 2026-04-16 09:54 | 32.27285 | -85.62826 | 32185 ft | 451 kts | 317° |
| 2026-04-16 09:54 | 32.32281 | -85.67282 | 32185 ft | 451 kts | 317° |
| 2026-04-16 09:55 | 32.37268 | -85.71737 | 32185 ft | 451 kts | 317° |
| 2026-04-16 09:55 | 32.42267 | -85.76209 | 32175 ft | 451 kts | 317° |
| 2026-04-16 09:56 | 32.47254 | -85.80677 | 32169 ft | 451 kts | 317° |
| 2026-04-16 09:56 | 32.52245 | -85.85156 | 32168 ft | 451 kts | 317° |
| 2026-04-16 09:57 | 32.57242 | -85.89644 | 32167 ft | 451 kts | 317° |
| 2026-04-16 09:57 | 32.62234 | -85.94136 | 32166 ft | 452 kts | 317° |
| 2026-04-16 09:58 | 32.67230 | -85.98637 | 32170 ft | 452 kts | 317° |
| 2026-04-16 09:58 | 32.72226 | -86.03144 | 32171 ft | 452 kts | 317° |
| 2026-04-16 09:59 | 32.77225 | -86.07661 | 32172 ft | 453 kts | 317° |
| 2026-04-16 09:59 | 32.82232 | -86.12192 | 32172 ft | 453 kts | 316° |
| 2026-04-16 10:00 | 32.87233 | -86.16724 | 32174 ft | 453 kts | 316° |
| 2026-04-16 10:00 | 32.92240 | -86.21268 | 32177 ft | 454 kts | 316° |
| 2026-04-16 10:01 | 32.99758 | -86.28104 | 32185 ft | 454 kts | 316° |
| 2026-04-16 10:01 | 33.04772 | -86.32672 | 32191 ft | 455 kts | 316° |
| 2026-04-16 10:02 | 33.09790 | -86.37249 | 32195 ft | 455 kts | 316° |
| 2026-04-16 10:02 | 33.12303 | -86.39546 | 31993 ft | 459 kts | 316° |
| 2026-04-16 10:02 | 33.14830 | -86.41859 | 31631 ft | 461 kts | 316° |
| 2026-04-16 10:03 | 33.17369 | -86.44184 | 31238 ft | 459 kts | 316° |
| 2026-04-16 10:03 | 33.19894 | -86.46493 | 30838 ft | 456 kts | 316° |
| 2026-04-16 10:03 | 33.22394 | -86.48778 | 30439 ft | 453 kts | 316° |
| 2026-04-16 10:03 | 33.24887 | -86.51059 | 30038 ft | 451 kts | 316° |
| 2026-04-16 10:04 | 33.27367 | -86.53330 | 29637 ft | 448 kts | 316° |
| 2026-04-16 10:04 | 33.29825 | -86.55584 | 29238 ft | 446 kts | 316° |
| 2026-04-16 10:04 | 33.32276 | -86.57835 | 28838 ft | 444 kts | 316° |
| 2026-04-16 10:04 | 33.34709 | -86.60070 | 28440 ft | 442 kts | 316° |
| 2026-04-16 10:05 | 33.37135 | -86.62301 | 28039 ft | 439 kts | 316° |
| 2026-04-16 10:05 | 33.39548 | -86.64524 | 27639 ft | 437 kts | 316° |
| 2026-04-16 10:05 | 33.41946 | -86.66734 | 27239 ft | 434 kts | 316° |
| 2026-04-16 10:05 | 33.44325 | -86.68928 | 26840 ft | 432 kts | 316° |
| 2026-04-16 10:06 | 33.46694 | -86.71115 | 26440 ft | 429 kts | 316° |
| 2026-04-16 10:06 | 33.49043 | -86.73286 | 26041 ft | 427 kts | 316° |
| 2026-04-16 10:06 | 33.51386 | -86.75452 | 25640 ft | 424 kts | 316° |
| 2026-04-16 10:06 | 33.53708 | -86.77602 | 25241 ft | 422 kts | 317° |
| 2026-04-16 10:07 | 33.56022 | -86.79745 | 24840 ft | 420 kts | 317° |
| 2026-04-16 10:07 | 33.58315 | -86.81872 | 24441 ft | 417 kts | 317° |
| 2026-04-16 10:07 | 33.60600 | -86.83992 | 24041 ft | 414 kts | 317° |
| 2026-04-16 10:07 | 33.62984 | -86.85939 | 23633 ft | 418 kts | 326° |
| 2026-04-16 10:08 | 33.65707 | -86.87161 | 23231 ft | 421 kts | 341° |
| 2026-04-16 10:08 | 33.68609 | -86.87517 | 22836 ft | 422 kts | 355° |
| 2026-04-16 10:08 | 33.71520 | -86.87186 | 22448 ft | 420 kts | 4° |
| 2026-04-16 10:08 | 33.74373 | -86.86527 | 22053 ft | 416 kts | 8° |
| 2026-04-16 10:09 | 33.77164 | -86.85729 | 21656 ft | 412 kts | 10° |
| 2026-04-16 10:09 | 33.79921 | -86.84869 | 21256 ft | 408 kts | 11° |
| 2026-04-16 10:09 | 33.82638 | -86.83990 | 20856 ft | 404 kts | 12° |
| 2026-04-16 10:09 | 33.85339 | -86.83103 | 20456 ft | 401 kts | 12° |
| 2026-04-16 10:10 | 33.88015 | -86.82223 | 20055 ft | 398 kts | 12° |
| 2026-04-16 10:10 | 33.90681 | -86.81452 | 19657 ft | 394 kts | 9° |
| 2026-04-16 10:10 | 33.93348 | -86.80776 | 19257 ft | 391 kts | 8° |
| 2026-04-16 10:10 | 33.96001 | -86.80145 | 18858 ft | 388 kts | 7° |
| 2026-04-16 10:11 | 33.98632 | -86.79537 | 18459 ft | 385 kts | 7° |
| 2026-04-16 10:11 | 34.01254 | -86.78941 | 18058 ft | 383 kts | 7° |
| 2026-04-16 10:11 | 34.03864 | -86.78347 | 17658 ft | 381 kts | 7° |
| 2026-04-16 10:11 | 34.06458 | -86.77754 | 17259 ft | 379 kts | 7° |
| 2026-04-16 10:12 | 34.09038 | -86.77167 | 16859 ft | 377 kts | 7° |
| 2026-04-16 10:12 | 34.11602 | -86.76587 | 16460 ft | 375 kts | 7° |
| 2026-04-16 10:12 | 34.14150 | -86.76014 | 16061 ft | 373 kts | 7° |
| 2026-04-16 10:12 | 34.16692 | -86.75447 | 15660 ft | 370 kts | 7° |
| 2026-04-16 10:13 | 34.19212 | -86.74889 | 15261 ft | 368 kts | 7° |
| 2026-04-16 10:13 | 34.21718 | -86.74340 | 14861 ft | 366 kts | 7° |
| 2026-04-16 10:13 | 34.24207 | -86.73798 | 14462 ft | 363 kts | 7° |
| 2026-04-16 10:13 | 34.26686 | -86.73264 | 14062 ft | 361 kts | 7° |
| 2026-04-16 10:14 | 34.29144 | -86.72738 | 13663 ft | 359 kts | 7° |
| 2026-04-16 10:14 | 34.31589 | -86.72220 | 13263 ft | 356 kts | 7° |
| 2026-04-16 10:14 | 34.34022 | -86.71710 | 12863 ft | 354 kts | 7° |
| 2026-04-16 10:14 | 34.36434 | -86.71208 | 12464 ft | 352 kts | 7° |
| 2026-04-16 10:15 | 34.38814 | -86.70717 | 12074 ft | 341 kts | 7° |
| 2026-04-16 10:15 | 34.41093 | -86.70245 | 11815 ft | 324 kts | 7° |
| 2026-04-16 10:15 | 34.43271 | -86.69792 | 11558 ft | 313 kts | 6° |
| 2026-04-16 10:15 | 34.45383 | -86.69363 | 11305 ft | 306 kts | 6° |
| 2026-04-16 10:16 | 34.47481 | -86.68982 | 10858 ft | 304 kts | 5° |
| 2026-04-16 10:16 | 34.49559 | -86.68620 | 10359 ft | 301 kts | 5° |
| 2026-04-16 10:16 | 34.51615 | -86.68267 | 9861 ft | 298 kts | 5° |
| 2026-04-16 10:16 | 34.53640 | -86.67921 | 9325 ft | 288 kts | 5° |
| 2026-04-16 10:17 | 34.55565 | -86.67585 | 8847 ft | 277 kts | 5° |
| 2026-04-16 10:17 | 34.57461 | -86.67253 | 8318 ft | 271 kts | 5° |
| 2026-04-16 10:17 | 34.59281 | -86.66930 | 7847 ft | 262 kts | 5° |
| 2026-04-16 10:17 | 34.61092 | -86.66613 | 7347 ft | 266 kts | 5° |
| 2026-04-16 10:18 | 34.62880 | -86.66299 | 6824 ft | 256 kts | 5° |
| 2026-04-16 10:18 | 34.64610 | -86.65991 | 6573 ft | 248 kts | 5° |
| 2026-04-16 10:18 | 34.66296 | -86.65692 | 6326 ft | 244 kts | 5° |
| 2026-04-16 10:18 | 34.67957 | -86.65399 | 6102 ft | 239 kts | 4° |
| 2026-04-16 10:19 | 34.69581 | -86.65126 | 5921 ft | 233 kts | 4° |
| 2026-04-16 10:19 | 34.71172 | -86.64869 | 5742 ft | 230 kts | 4° |
| 2026-04-16 10:19 | 34.72746 | -86.64615 | 5581 ft | 226 kts | 3° |
| 2026-04-16 10:19 | 34.74287 | -86.64362 | 5484 ft | 223 kts | 4° |
| 2026-04-16 10:20 | 34.75835 | -86.64107 | 5330 ft | 225 kts | 4° |
| 2026-04-16 10:20 | 34.77385 | -86.63852 | 5132 ft | 225 kts | 4° |
| 2026-04-16 10:20 | 34.78930 | -86.63596 | 4957 ft | 224 kts | 4° |
| 2026-04-16 10:20 | 34.80472 | -86.63390 | 4769 ft | 222 kts | 357° |
| 2026-04-16 10:21 | 34.81913 | -86.63805 | 4610 ft | 206 kts | 329° |
| 2026-04-16 10:21 | 34.82942 | -86.64908 | 4442 ft | 194 kts | 301° |
| 2026-04-16 10:21 | 34.83593 | -86.66304 | 4324 ft | 187 kts | 290° |
| 2026-04-16 10:21 | 34.84152 | -86.67702 | 4168 ft | 182 kts | 289° |
| 2026-04-16 10:22 | 34.84694 | -86.69076 | 4015 ft | 178 kts | 288° |
| 2026-04-16 10:22 | 34.85225 | -86.70415 | 3884 ft | 175 kts | 288° |
| 2026-04-16 10:22 | 34.85502 | -86.71796 | 3712 ft | 165 kts | 265° |
| 2026-04-16 10:22 | 34.85102 | -86.73046 | 3631 ft | 158 kts | 234° |
| 2026-04-16 10:23 | 34.84230 | -86.73865 | 3574 ft | 160 kts | 214° |
| 2026-04-16 10:23 | 34.83266 | -86.74526 | 3452 ft | 158 kts | 211° |
| 2026-04-16 10:23 | 34.82313 | -86.75139 | 3316 ft | 154 kts | 209° |
| 2026-04-16 10:23 | 34.81329 | -86.75616 | 3184 ft | 152 kts | 204° |
| 2026-04-16 10:24 | 34.80332 | -86.76007 | 3059 ft | 150 kts | 201° |
| 2026-04-16 10:24 | 34.79327 | -86.76295 | 3007 ft | 148 kts | 196° |
| 2026-04-16 10:24 | 34.78317 | -86.76447 | 3052 ft | 141 kts | 191° |
| 2026-04-16 10:24 | 34.77340 | -86.76474 | 3075 ft | 142 kts | 187° |
| 2026-04-16 10:25 | 34.76347 | -86.76444 | 2937 ft | 143 kts | 185° |
| 2026-04-16 10:25 | 34.75376 | -86.76402 | 2694 ft | 136 kts | 184° |
| 2026-04-16 10:25 | 34.74449 | -86.76379 | 2468 ft | 131 kts | 185° |
| 2026-04-16 10:25 | 34.73535 | -86.76384 | 2275 ft | 132 kts | 186° |
| 2026-04-16 10:26 | 34.72609 | -86.76410 | 2071 ft | 135 kts | 184° |
| 2026-04-16 10:26 | 34.71667 | -86.76477 | 1876 ft | 136 kts | 185° |
| 2026-04-16 10:26 | 34.70715 | -86.76502 | 1722 ft | 138 kts | 182° |
| 2026-04-16 10:26 | 34.69751 | -86.76490 | 1561 ft | 140 kts | 181° |
| 2026-04-16 10:27 | 34.68775 | -86.76490 | 1379 ft | 141 kts | 181° |
| 2026-04-16 10:27 | 34.67796 | -86.76506 | 1189 ft | 141 kts | 181° |
| 2026-04-16 10:27 | 34.66821 | -86.76529 | 958 ft | 141 kts | 181° |
| 2026-04-16 10:27 | 34.65857 | -86.76543 | 768 ft | 137 kts | 180° |
| 2026-04-16 10:28 | 34.64925 | -86.76556 | 644 ft | 128 kts | 180° |
| 2026-04-16 10:28 | 34.64192 | -86.76571 | 639 ft | 68 kts | 182° |
| 2026-04-16 10:28 | 34.63836 | -86.76583 | 639 ft | 36 kts | 181° |
| 2026-04-16 10:28 | 34.63659 | -86.76587 | 639 ft | 15 kts | 185° |
| 2026-04-16 10:29 | 34.63610 | -86.76648 | 639 ft | 8 kts | 268° |
| 2026-04-16 10:29 | 34.63635 | -86.76693 | 639 ft | 6 kts | 341° |
| 2026-04-16 10:29 | 34.63680 | -86.76703 | 639 ft | 8 kts | 358° |
| 2026-04-16 10:29 | 34.63742 | -86.76704 | 639 ft | 10 kts | 0° |
| 2026-04-16 10:30 | 34.63819 | -86.76704 | 639 ft | 12 kts | 1° |
| 2026-04-16 10:30 | 34.63913 | -86.76701 | 639 ft | 15 kts | 1° |
| 2026-04-16 10:30 | 34.64022 | -86.76698 | 639 ft | 17 kts | 1° |
| 2026-04-16 10:30 | 34.64143 | -86.76694 | 639 ft | 18 kts | 1° |
| 2026-04-16 10:31 | 34.64266 | -86.76690 | 639 ft | 18 kts | 1° |
| 2026-04-16 10:31 | 34.64385 | -86.76687 | 639 ft | 13 kts | 1° |
| 2026-04-16 10:31 | 34.64440 | -86.76686 | 639 ft | 5 kts | 357° |
| 2026-04-16 10:31 | 34.64466 | -86.76701 | 639 ft | 4 kts | 310° |
| 2026-04-16 10:32 | 34.64474 | -86.76734 | 639 ft | 4 kts | 272° |
| 2026-04-16 10:32 | 34.64475 | -86.76774 | 639 ft | 5 kts | 270° |
| 2026-04-16 10:32 | 34.64475 | -86.76823 | 639 ft | 7 kts | 270° |
| 2026-04-16 10:32 | 34.64476 | -86.76891 | 639 ft | 9 kts | 271° |
| 2026-04-16 10:33 | 34.64477 | -86.76979 | 639 ft | 11 kts | 271° |
| 2026-04-16 10:33 | 34.64479 | -86.77085 | 639 ft | 14 kts | 271° |
| 2026-04-16 10:33 | 34.64480 | -86.77200 | 639 ft | 12 kts | 271° |
| 2026-04-16 10:33 | 34.64482 | -86.77290 | 639 ft | 8 kts | 271° |
| 2026-04-16 10:34 | 34.64507 | -86.77343 | 639 ft | 8 kts | 336° |
| 2026-04-16 10:34 | 34.64562 | -86.77352 | 639 ft | 7 kts | 357° |
| 2026-04-16 10:34 | 34.64620 | -86.77359 | 639 ft | 10 kts | 346° |
| 2026-04-16 10:34 | 34.64684 | -86.77397 | 639 ft | 7 kts | 330° |
| 2026-04-16 10:35 | 34.64714 | -86.77418 | 639 ft | 4 kts | 330° |
| 2026-04-16 10:35 | 34.64734 | -86.77436 | 639 ft | 4 kts | 314° |
| 2026-04-16 10:35 | 34.64752 | -86.77479 | 639 ft | 6 kts | 286° |
| 2026-04-16 10:35 | 34.64756 | -86.77510 | 639 ft | 4 kts | 277° |
| 2026-04-16 10:36 | 34.64758 | -86.77523 | 639 ft | 0 kts | 277° |